Terminal Aerodrome Forecast
Issued by NWS Twin Cities, MN

Home | Current Version | Previous Version | Text Only | Print | Product List | Glossary Off
Versions: 1 2 3 4 5 6 7 8 9 10 11 12 13 14 15 16 17 18 19 20 21 22 23 24 25

000
FTUS43 KMPX 182325
TAFMSP
TAF
KMSP 182325Z 1900/2006 01010KT P6SM OVC035
     FM190400 02006KT P6SM BKN250 WS020/06035KT
     FM190700 34005KT P6SM SCT250
     FM191800 29006KT P6SM SCT250
     FM200000 24005KT P6SM FEW250=

USA.gov is the U.S. government's official web portal to all federal, state and local government web resources and services.